Time;durP1;ratioP1;P1;durP2;ratioP2;P2;SDS_P1;SDS_P2;PMS_P1;PMS_P2;Temp;Humidity;BMP_temperature;BMP_pressure;BME280_temperature;BME280_humidity;BME280_pressure;Samples;Min_cycle;Max_cycle;Signal;HPM_P1;HPM_P2
2021/10/31 00:00:18;;;;;;;;;;;11.80;99.90;;;;;;5071612;28;19938;-66
2021/10/31 00:02:44;;;;;;;;;;;11.80;99.90;;;;;;5081586;28;20020;-66
2021/10/31 00:05:10;;;;;;;;;;;11.70;99.90;;;;;;5089492;28;19973;-66
2021/10/31 00:07:35;;;;;;;;;;;11.70;99.90;;;;;;5071178;28;19924;-66
2021/10/31 00:10:01;;;;;;;;;;;11.60;99.90;;;;;;5071081;28;19920;-66
2021/10/31 00:12:26;;;;;;;;;;;11.60;99.90;;;;;;5073351;28;19927;-67
2021/10/31 00:14:52;;;;;;;;;;;11.60;99.90;;;;;;5072982;28;20070;-66
2021/10/31 00:17:19;;;;;;;;;;;11.50;99.90;;;;;;5071336;28;19924;-66
2021/10/31 00:19:45;;;;;;;;;;;11.40;99.90;;;;;;5065390;28;20005;-67
2021/10/31 00:22:10;;;;;;;;;;;11.40;99.90;;;;;;5101010;28;19958;-66
2021/10/31 00:24:36;;;;;;;;;;;11.30;99.90;;;;;;5089030;28;20010;-66
2021/10/31 00:27:01;;;;;;;;;;;11.20;99.90;;;;;;5080559;28;19921;-66
2021/10/31 00:29:27;;;;;;;;;;;11.20;99.90;;;;;;5088478;28;19920;-66
2021/10/31 00:31:52;;;;;;;;;;;11.20;99.90;;;;;;5073106;28;19939;-66
2021/10/31 00:34:18;;;;;;;;;;;11.10;99.90;;;;;;5073380;28;20374;-66
2021/10/31 00:36:43;;;;;;;;;;;11.20;99.90;;;;;;5070576;28;19973;-66
2021/10/31 00:39:09;;;;;;;;;;;11.10;99.90;;;;;;5068488;28;20370;-66
2021/10/31 00:41:34;;;;;;;;;;;11.10;99.90;;;;;;5078484;28;19924;-66
2021/10/31 00:43:59;;;;;;;;;;;11.10;99.90;;;;;;5071245;28;19985;-66
2021/10/31 00:46:25;;;;;;;;;;;11.10;99.90;;;;;;5091401;28;20337;-66
2021/10/31 00:48:50;;;;;;;;;;;11.10;99.90;;;;;;5080604;28;19974;-66
2021/10/31 00:51:16;;;;;;;;;;;11.00;99.90;;;;;;5075410;28;19928;-66
2021/10/31 00:53:42;;;;;;;;;;;11.10;99.90;;;;;;5088134;28;20361;-67
2021/10/31 00:56:08;;;;;;;;;;;11.10;99.90;;;;;;5069533;28;20003;-66
2021/10/31 00:58:33;;;;;;;;;;;11.10;99.90;;;;;;5081498;28;20015;-66
2021/10/31 01:00:59;;;;;;;;;;;11.20;99.90;;;;;;5073674;28;19928;-66
2021/10/31 01:03:24;;;;;;;;;;;11.20;99.90;;;;;;5053746;28;20006;-66
2021/10/31 01:05:54;;;;;;;;;;;11.10;99.90;;;;;;5075298;28;19921;-66
2021/10/31 01:08:22;;;;;;;;;;;11.10;99.90;;;;;;5057717;28;19924;-66
2021/10/31 01:10:52;;;;;;;;;;;11.10;99.90;;;;;;5085859;28;20050;-66
2021/10/31 01:13:31;;;;;;;;;;;11.10;99.90;;;;;;5081412;28;19923;-66
2021/10/31 01:16:05;;;;;;;;;;;11.10;99.90;;;;;;5068215;28;19920;-66
2021/10/31 01:18:50;;;;;;;;;;;11.10;99.90;;;;;;5073011;28;20018;-66
2021/10/31 01:21:34;;;;;;;;;;;11.10;99.90;;;;;;5066827;28;19916;-66
2021/10/31 01:24:12;;;;;;;;;;;11.10;99.90;;;;;;5072910;28;19924;-66
2021/10/31 01:26:47;;;;;;;;;;;11.10;99.90;;;;;;5079791;28;20011;-66
2021/10/31 01:29:21;;;;;;;;;;;11.00;99.90;;;;;;5061586;28;19923;-66
2021/10/31 01:31:57;;;;;;;;;;;10.90;99.90;;;;;;5075675;28;19966;-66
2021/10/31 01:34:29;;;;;;;;;;;10.90;99.90;;;;;;5068844;28;19917;-66
2021/10/31 01:37:13;;;;;;;;;;;10.90;99.90;;;;;;5066209;28;20345;-66
2021/10/31 01:39:53;;;;;;;;;;;10.90;99.90;;;;;;5059463;28;20026;-66
2021/10/31 01:42:27;;;;;;;;;;;10.80;99.90;;;;;;5064286;28;19917;-66
2021/10/31 01:45:02;;;;;;;;;;;10.80;99.90;;;;;;5076443;28;19920;-66
2021/10/31 01:47:30;;;;;;;;;;;10.70;99.90;;;;;;5053302;28;19927;-66
2021/10/31 01:49:59;;;;;;;;;;;10.70;99.90;;;;;;5055140;28;19967;-66
2021/10/31 01:52:33;;;;;;;;;;;10.60;99.90;;;;;;5070454;28;20002;-66
2021/10/31 01:55:01;;;;;;;;;;;10.50;99.90;;;;;;5079923;28;19920;-66
2021/10/31 01:57:27;;;;;;;;;;;10.50;99.90;;;;;;5083510;28;20699;-66
2021/10/31 02:00:10;;;;;;;;;;;10.40;99.90;;;;;;5084994;28;20297;-66
2021/10/31 02:02:38;;;;;;;;;;;10.40;99.90;;;;;;5073585;28;19974;-66
2021/10/31 02:05:04;;;;;;;;;;;10.40;99.90;;;;;;5067774;28;20345;-66
2021/10/31 02:07:31;;;;;;;;;;;10.30;99.90;;;;;;5063301;28;20259;-66
2021/10/31 02:09:58;;;;;;;;;;;10.30;99.90;;;;;;5070980;28;20007;-66
2021/10/31 02:12:24;;;;;;;;;;;10.20;99.90;;;;;;5053118;28;19916;-66
2021/10/31 02:14:51;;;;;;;;;;;10.20;99.90;;;;;;5071119;28;20707;-66
2021/10/31 02:17:17;;;;;;;;;;;10.10;99.90;;;;;;5071290;28;20023;-66
2021/10/31 02:19:44;;;;;;;;;;;10.10;99.90;;;;;;5079114;28;19924;-66
2021/10/31 02:22:27;;;;;;;;;;;10.00;99.90;;;;;;5067064;28;19924;-66
2021/10/31 02:24:53;;;;;;;;;;;9.90;99.90;;;;;;5073480;28;20005;-66
2021/10/31 02:27:20;;;;;;;;;;;9.90;99.90;;;;;;5068590;28;19967;-66
2021/10/31 02:29:47;;;;;;;;;;;9.80;99.90;;;;;;5067263;28;19944;-66
2021/10/31 02:32:13;;;;;;;;;;;9.80;99.90;;;;;;5061549;28;19974;-66
2021/10/31 02:34:38;;;;;;;;;;;9.70;99.90;;;;;;5075370;28;19959;-66
2021/10/31 02:37:04;;;;;;;;;;;9.80;99.90;;;;;;5077528;28;19923;-66
2021/10/31 02:39:29;;;;;;;;;;;9.70;99.90;;;;;;5064280;28;20413;-66
2021/10/31 02:41:55;;;;;;;;;;;9.60;99.90;;;;;;5062482;28;19928;-66
2021/10/31 02:44:20;;;;;;;;;;;9.60;99.90;;;;;;5072778;28;19916;-66
2021/10/31 02:46:46;;;;;;;;;;;9.60;99.90;;;;;;5058987;28;19924;-66
2021/10/31 02:49:12;;;;;;;;;;;9.50;99.90;;;;;;5058377;28;20013;-66
2021/10/31 02:51:43;;;;;;;;;;;9.50;99.90;;;;;;5073060;28;19919;-66
2021/10/31 02:54:16;;;;;;;;;;;9.40;99.90;;;;;;5079846;28;20006;-66
2021/10/31 02:56:44;;;;;;;;;;;9.40;99.90;;;;;;5079428;28;19917;-66
2021/10/31 02:59:17;;;;;;;;;;;9.40;99.90;;;;;;5069873;28;19916;-64
2021/10/31 03:01:42;;;;;;;;;;;9.40;99.90;;;;;;5059611;28;20035;-65
2021/10/31 03:04:09;;;;;;;;;;;9.30;99.90;;;;;;5065829;28;19935;-65
2021/10/31 03:06:34;;;;;;;;;;;9.30;99.90;;;;;;5059578;28;19921;-65
2021/10/31 03:09:00;;;;;;;;;;;9.20;99.90;;;;;;5066786;28;20026;-65
2021/10/31 03:11:26;;;;;;;;;;;9.20;99.90;;;;;;5076259;28;20328;-65
2021/10/31 03:13:52;;;;;;;;;;;9.20;99.90;;;;;;5064766;28;19969;-65
2021/10/31 03:16:18;;;;;;;;;;;9.20;99.90;;;;;;5075164;28;19916;-65
2021/10/31 03:18:44;;;;;;;;;;;9.20;99.90;;;;;;5074832;28;19924;-65
2021/10/31 03:21:10;;;;;;;;;;;9.10;99.90;;;;;;5071236;28;19916;-65
2021/10/31 03:23:37;;;;;;;;;;;9.10;99.90;;;;;;5080777;28;19920;-65
2021/10/31 03:26:03;;;;;;;;;;;9.00;99.90;;;;;;5075810;28;20510;-65
2021/10/31 03:28:28;;;;;;;;;;;9.00;99.90;;;;;;5072140;28;19920;-65
2021/10/31 03:30:54;;;;;;;;;;;9.00;99.90;;;;;;5077805;28;20368;-65
2021/10/31 03:33:19;;;;;;;;;;;8.90;99.90;;;;;;5068944;28;19971;-65
2021/10/31 03:35:45;;;;;;;;;;;8.90;99.90;;;;;;5069546;28;19917;-65
2021/10/31 03:38:10;;;;;;;;;;;8.90;99.90;;;;;;5061314;28;19962;-65
2021/10/31 03:40:36;;;;;;;;;;;8.80;99.90;;;;;;5075760;28;19924;-65
2021/10/31 03:43:01;;;;;;;;;;;8.70;99.90;;;;;;5076506;28;20007;-65
2021/10/31 03:45:27;;;;;;;;;;;8.70;99.90;;;;;;5059204;28;19960;-65
2021/10/31 03:47:53;;;;;;;;;;;8.70;99.90;;;;;;5073533;28;19924;-65
2021/10/31 03:50:21;;;;;;;;;;;8.60;99.90;;;;;;5071588;28;19923;-65
2021/10/31 03:52:47;;;;;;;;;;;8.60;99.90;;;;;;5077761;28;20471;-65
2021/10/31 03:55:13;;;;;;;;;;;8.60;99.90;;;;;;5077656;28;20003;-65
2021/10/31 03:57:39;;;;;;;;;;;8.60;99.90;;;;;;5073999;28;19916;-65
2021/10/31 04:00:05;;;;;;;;;;;8.60;99.90;;;;;;5063293;28;19920;-65
2021/10/31 04:02:31;;;;;;;;;;;8.60;99.90;;;;;;5052797;28;19920;-65
2021/10/31 04:04:56;;;;;;;;;;;8.60;99.90;;;;;;5067627;28;19995;-65
2021/10/31 04:07:22;;;;;;;;;;;8.70;99.90;;;;;;5066048;28;19920;-65
2021/10/31 04:09:47;;;;;;;;;;;8.80;99.90;;;;;;5071078;28;19931;-65
2021/10/31 04:12:13;;;;;;;;;;;8.90;99.90;;;;;;5088752;28;20007;-65
2021/10/31 04:14:38;;;;;;;;;;;9.00;99.90;;;;;;5072989;28;19916;-65
2021/10/31 04:17:04;;;;;;;;;;;9.00;99.90;;;;;;5086663;28;19916;-65
2021/10/31 04:19:29;;;;;;;;;;;9.10;99.90;;;;;;5073636;28;20417;-65
2021/10/31 04:21:55;;;;;;;;;;;9.20;99.90;;;;;;5070210;28;19920;-65
2021/10/31 04:24:21;;;;;;;;;;;9.20;99.90;;;;;;5071048;28;19943;-65
2021/10/31 04:26:50;;;;;;;;;;;9.30;99.90;;;;;;5076119;28;19924;-65
2021/10/31 04:29:15;;;;;;;;;;;9.40;99.90;;;;;;5072418;28;19916;-65
2021/10/31 04:31:41;;;;;;;;;;;9.40;99.90;;;;;;5060113;28;19963;-65
2021/10/31 04:34:06;;;;;;;;;;;9.50;99.90;;;;;;5071773;28;19920;-65
2021/10/31 04:36:32;;;;;;;;;;;9.50;99.90;;;;;;5072252;28;20297;-65
2021/10/31 04:38:57;;;;;;;;;;;9.50;99.90;;;;;;5065705;28;19920;-65
2021/10/31 04:41:25;;;;;;;;;;;9.60;99.90;;;;;;5069208;28;19931;-65
2021/10/31 04:43:50;;;;;;;;;;;9.60;99.90;;;;;;5057567;28;20011;-65
2021/10/31 04:46:16;;;;;;;;;;;9.60;99.90;;;;;;5070198;28;20023;-65
2021/10/31 04:48:41;;;;;;;;;;;9.60;99.90;;;;;;5084832;28;19923;-65
2021/10/31 04:51:07;;;;;;;;;;;9.60;99.90;;;;;;5082051;28;19923;-65
2021/10/31 04:53:33;;;;;;;;;;;9.70;99.90;;;;;;5075016;28;20445;-65
2021/10/31 04:55:58;;;;;;;;;;;9.70;99.90;;;;;;5067211;28;19920;-65
2021/10/31 04:58:24;;;;;;;;;;;9.80;99.90;;;;;;5073278;28;19958;-65
2021/10/31 05:00:50;;;;;;;;;;;9.80;99.90;;;;;;5071310;28;19916;-65
2021/10/31 05:03:15;;;;;;;;;;;9.80;99.90;;;;;;5071552;28;19940;-65
2021/10/31 05:05:41;;;;;;;;;;;9.80;99.90;;;;;;5075475;28;19982;-65
2021/10/31 05:08:06;;;;;;;;;;;9.80;99.90;;;;;;5074673;28;20411;-65
2021/10/31 05:10:32;;;;;;;;;;;9.90;99.90;;;;;;5083406;28;19924;-65
2021/10/31 05:12:57;;;;;;;;;;;9.90;99.90;;;;;;5069002;28;20011;-65
2021/10/31 05:15:23;;;;;;;;;;;9.90;99.90;;;;;;5058850;28;20249;-65
2021/10/31 05:17:49;;;;;;;;;;;9.90;99.90;;;;;;5073225;28;19923;-65
2021/10/31 05:20:15;;;;;;;;;;;9.90;99.90;;;;;;5072369;28;19962;-65
2021/10/31 05:22:41;;;;;;;;;;;10.00;99.90;;;;;;5071395;28;20323;-65
2021/10/31 05:25:07;;;;;;;;;;;10.00;99.90;;;;;;5069920;28;19942;-65
2021/10/31 05:27:34;;;;;;;;;;;10.00;99.90;;;;;;5060361;28;20457;-65
2021/10/31 05:29:59;;;;;;;;;;;10.00;99.90;;;;;;5079334;28;19999;-65
2021/10/31 05:32:31;;;;;;;;;;;10.00;99.90;;;;;;5073954;28;19920;-65
2021/10/31 05:34:57;;;;;;;;;;;10.00;99.90;;;;;;5072797;28;19920;-65
2021/10/31 05:37:22;;;;;;;;;;;10.00;99.90;;;;;;5071876;28;19949;-65
2021/10/31 05:39:48;;;;;;;;;;;10.10;99.90;;;;;;5088393;28;20393;-65
2021/10/31 05:42:13;;;;;;;;;;;10.10;99.90;;;;;;5071533;28;19916;-65
2021/10/31 05:44:39;;;;;;;;;;;10.00;99.90;;;;;;5071382;28;20363;-65
2021/10/31 05:47:04;;;;;;;;;;;10.10;99.90;;;;;;5071190;28;19933;-65
2021/10/31 05:49:30;;;;;;;;;;;10.10;99.90;;;;;;5082514;28;20297;-65
2021/10/31 05:51:55;;;;;;;;;;;10.10;99.90;;;;;;5072403;28;20003;-65
2021/10/31 05:54:21;;;;;;;;;;;10.10;99.90;;;;;;5071518;28;19920;-65
2021/10/31 05:56:46;;;;;;;;;;;10.10;99.90;;;;;;5076622;28;19927;-65
2021/10/31 05:59:12;;;;;;;;;;;10.10;99.90;;;;;;5075290;28;20381;-65
2021/10/31 06:01:37;;;;;;;;;;;10.10;99.90;;;;;;5076512;28;19939;-66
2021/10/31 06:04:03;;;;;;;;;;;10.10;99.90;;;;;;5075980;28;19916;-64
2021/10/31 06:06:28;;;;;;;;;;;10.10;99.90;;;;;;5075004;28;20007;-65
2021/10/31 06:08:54;;;;;;;;;;;10.10;99.90;;;;;;5075737;28;19924;-65
2021/10/31 06:11:19;;;;;;;;;;;10.10;99.90;;;;;;5075940;28;20345;-65
2021/10/31 06:13:45;;;;;;;;;;;10.10;99.90;;;;;;5075088;28;20385;-65
2021/10/31 06:16:11;;;;;;;;;;;10.10;99.90;;;;;;5074645;28;19924;-65
2021/10/31 06:18:36;;;;;;;;;;;10.10;99.90;;;;;;5074538;28;19958;-65
2021/10/31 06:21:02;;;;;;;;;;;10.10;99.90;;;;;;5067832;28;19954;-65
2021/10/31 06:23:28;;;;;;;;;;;10.10;99.90;;;;;;5074186;28;19982;-65
2021/10/31 06:25:53;;;;;;;;;;;10.10;99.90;;;;;;5074071;28;19988;-65
2021/10/31 06:28:19;;;;;;;;;;;10.10;99.90;;;;;;5076082;28;19923;-65
2021/10/31 06:30:45;;;;;;;;;;;10.10;99.90;;;;;;5074119;28;19916;-65
2021/10/31 06:33:10;;;;;;;;;;;10.10;99.90;;;;;;5074564;28;19916;-65
2021/10/31 06:35:36;;;;;;;;;;;10.10;99.90;;;;;;5073569;28;19935;-65
2021/10/31 06:38:01;;;;;;;;;;;10.10;99.90;;;;;;5066688;28;19916;-65
2021/10/31 06:40:27;;;;;;;;;;;10.20;99.90;;;;;;5073037;28;19990;-65
2021/10/31 06:42:53;;;;;;;;;;;10.10;99.90;;;;;;5073037;28;19920;-65
2021/10/31 06:45:18;;;;;;;;;;;10.10;99.90;;;;;;5074551;28;20353;-65
2021/10/31 06:47:44;;;;;;;;;;;10.10;99.90;;;;;;5071816;28;19917;-65
2021/10/31 06:50:09;;;;;;;;;;;10.20;99.90;;;;;;5074978;28;19938;-65
2021/10/31 06:52:35;;;;;;;;;;;10.10;99.90;;;;;;5092038;28;20567;-65
2021/10/31 06:55:01;;;;;;;;;;;10.20;99.90;;;;;;5074176;28;19950;-65
2021/10/31 06:57:26;;;;;;;;;;;10.20;99.90;;;;;;5071019;28;20381;-65
2021/10/31 06:59:52;;;;;;;;;;;10.20;99.90;;;;;;5082466;28;19919;-65
2021/10/31 07:02:17;;;;;;;;;;;10.20;99.90;;;;;;5080333;28;19916;-65
2021/10/31 07:04:43;;;;;;;;;;;10.20;99.90;;;;;;5074893;28;20343;-65
2021/10/31 07:07:09;;;;;;;;;;;10.10;99.90;;;;;;5071214;28;19969;-65
2021/10/31 07:09:34;;;;;;;;;;;10.20;99.90;;;;;;5080313;28;19916;-65
2021/10/31 07:12:00;;;;;;;;;;;10.20;99.90;;;;;;5094450;28;20018;-65
2021/10/31 07:14:26;;;;;;;;;;;10.20;99.90;;;;;;5081023;28;19925;-65
2021/10/31 07:16:51;;;;;;;;;;;10.20;99.90;;;;;;5075147;28;19923;-65
2021/10/31 07:19:17;;;;;;;;;;;10.20;99.90;;;;;;5074932;28;19923;-65
2021/10/31 07:21:43;;;;;;;;;;;10.30;99.90;;;;;;5081163;22;20408;-66
2021/10/31 07:24:08;;;;;;;;;;;10.30;99.90;;;;;;5053496;28;19982;-65
2021/10/31 07:26:34;;;;;;;;;;;10.30;99.90;;;;;;5052846;28;20288;-66
2021/10/31 07:29:00;;;;;;;;;;;10.40;99.90;;;;;;5033533;28;20023;-66
2021/10/31 07:31:26;;;;;;;;;;;10.40;99.90;;;;;;5049923;28;19916;-66
2021/10/31 07:33:52;;;;;;;;;;;10.40;99.90;;;;;;5052383;28;19946;-66
2021/10/31 07:36:18;;;;;;;;;;;10.40;99.90;;;;;;5050729;28;20325;-66
2021/10/31 07:38:44;;;;;;;;;;;10.50;99.90;;;;;;5032825;28;19916;-66
2021/10/31 07:41:10;;;;;;;;;;;10.50;99.90;;;;;;5028364;28;19925;-66
2021/10/31 07:43:35;;;;;;;;;;;10.60;99.90;;;;;;5044824;28;20388;-65
2021/10/31 07:46:01;;;;;;;;;;;10.60;99.90;;;;;;5049528;28;19925;-66
2021/10/31 07:48:26;;;;;;;;;;;10.60;99.90;;;;;;5034473;28;19929;-65
2021/10/31 07:50:52;;;;;;;;;;;10.60;99.90;;;;;;5033914;28;19934;-66
2021/10/31 07:53:17;;;;;;;;;;;10.70;99.90;;;;;;5051217;28;19927;-66
2021/10/31 07:55:48;;;;;;;;;;;10.70;99.90;;;;;;5049998;28;19917;-65
2021/10/31 07:58:16;;;;;;;;;;;10.70;99.90;;;;;;5032473;28;20546;-66
2021/10/31 08:00:41;;;;;;;;;;;10.70;99.90;;;;;;5032719;28;20447;-66
2021/10/31 08:03:07;;;;;;;;;;;10.70;99.90;;;;;;5051146;28;19920;-66
2021/10/31 08:05:33;;;;;;;;;;;10.70;99.90;;;;;;5026860;28;19980;-66
2021/10/31 08:07:58;;;;;;;;;;;10.80;99.90;;;;;;5052872;28;19944;-66
2021/10/31 08:10:24;;;;;;;;;;;10.80;99.90;;;;;;5049303;28;19917;-66
2021/10/31 08:12:50;;;;;;;;;;;10.90;99.90;;;;;;5052385;28;20008;-66
2021/10/31 08:15:16;;;;;;;;;;;10.90;99.90;;;;;;5048811;28;19932;-65
2021/10/31 08:17:41;;;;;;;;;;;11.00;99.90;;;;;;5045792;28;19917;-66
2021/10/31 08:20:07;;;;;;;;;;;11.00;99.90;;;;;;5048773;28;19931;-66
2021/10/31 08:22:33;;;;;;;;;;;11.10;99.90;;;;;;5028924;28;20007;-66
2021/10/31 08:24:58;;;;;;;;;;;11.20;99.90;;;;;;5050147;28;19947;-66
2021/10/31 08:27:24;;;;;;;;;;;11.20;99.90;;;;;;5032168;28;20400;-66
2021/10/31 08:29:50;;;;;;;;;;;11.30;99.90;;;;;;5049215;28;19932;-66
2021/10/31 08:32:16;;;;;;;;;;;11.30;99.90;;;;;;5051388;28;20273;-66
2021/10/31 08:34:42;;;;;;;;;;;11.30;99.90;;;;;;5032769;28;19917;-66
2021/10/31 08:37:07;;;;;;;;;;;11.40;99.90;;;;;;5025041;28;20492;-66
2021/10/31 08:39:33;;;;;;;;;;;11.40;99.90;;;;;;5034311;28;19921;-66
2021/10/31 08:41:58;;;;;;;;;;;11.40;99.90;;;;;;5052425;28;19921;-66
2021/10/31 08:44:24;;;;;;;;;;;11.50;99.90;;;;;;5052257;28;20321;-66
2021/10/31 08:46:49;;;;;;;;;;;11.50;99.90;;;;;;5052498;28;19917;-66
2021/10/31 08:49:15;;;;;;;;;;;11.50;99.90;;;;;;5052550;28;19956;-66
2021/10/31 08:51:41;;;;;;;;;;;11.50;99.90;;;;;;5037553;28;20378;-66
2021/10/31 08:54:06;;;;;;;;;;;11.50;99.90;;;;;;5022752;28;20211;-66
2021/10/31 08:56:32;;;;;;;;;;;11.60;99.90;;;;;;5048815;28;20007;-66
2021/10/31 08:58:57;;;;;;;;;;;11.70;99.90;;;;;;5051410;28;19948;-66
2021/10/31 09:01:23;;;;;;;;;;;11.80;99.90;;;;;;5030684;28;20424;-66
2021/10/31 09:03:50;;;;;;;;;;;11.90;99.90;;;;;;5046252;28;20261;-66
2021/10/31 09:06:15;;;;;;;;;;;11.90;99.90;;;;;;5048504;28;19963;-66
2021/10/31 09:08:41;;;;;;;;;;;12.00;99.90;;;;;;5049933;28;19925;-66
2021/10/31 09:11:07;;;;;;;;;;;12.00;99.90;;;;;;5051222;28;19923;-66
2021/10/31 09:13:32;;;;;;;;;;;12.00;99.90;;;;;;5048133;28;20330;-66
2021/10/31 09:15:58;;;;;;;;;;;12.00;99.90;;;;;;5016255;28;19943;-66
2021/10/31 09:18:24;;;;;;;;;;;12.10;99.90;;;;;;5047791;28;19916;-66
2021/10/31 09:20:50;;;;;;;;;;;12.10;99.90;;;;;;5029671;28;20006;-66
2021/10/31 09:23:16;;;;;;;;;;;12.10;99.90;;;;;;5048887;28;19916;-66
2021/10/31 09:25:41;;;;;;;;;;;12.10;99.90;;;;;;5050162;28;20318;-66
2021/10/31 09:28:07;;;;;;;;;;;12.10;99.90;;;;;;5050648;28;19927;-66
2021/10/31 09:30:34;;;;;;;;;;;12.10;99.90;;;;;;5047063;28;19961;-66
2021/10/31 09:32:59;;;;;;;;;;;12.10;99.90;;;;;;5027532;28;20381;-66
2021/10/31 09:35:26;;;;;;;;;;;12.10;99.90;;;;;;5050389;28;19917;-66
2021/10/31 09:37:56;;;;;;;;;;;12.10;99.90;;;;;;5050573;28;20458;-66
2021/10/31 09:40:23;;;;;;;;;;;12.10;99.90;;;;;;5043071;28;20385;-66
2021/10/31 09:42:50;;;;;;;;;;;12.10;99.90;;;;;;5046616;28;19921;-66
2021/10/31 09:45:15;;;;;;;;;;;12.10;99.90;;;;;;5049606;28;19916;-66
2021/10/31 09:47:42;;;;;;;;;;;12.20;99.90;;;;;;5049276;28;19924;-66
2021/10/31 09:50:09;;;;;;;;;;;12.20;99.90;;;;;;5045602;28;19920;-66
2021/10/31 09:52:34;;;;;;;;;;;12.30;99.90;;;;;;5028234;28;19924;-66
2021/10/31 09:55:00;;;;;;;;;;;12.30;99.90;;;;;;5046106;28;20277;-66
2021/10/31 09:57:26;;;;;;;;;;;12.40;99.90;;;;;;5045919;28;19966;-66
2021/10/31 09:59:54;;;;;;;;;;;12.50;99.90;;;;;;5050538;28;19952;-66
2021/10/31 10:02:44;;;;;;;;;;;12.60;99.90;;;;;;5047018;28;20042;-66
2021/10/31 10:05:15;;;;;;;;;;;12.60;99.90;;;;;;5034235;28;20365;-66
2021/10/31 10:07:40;;;;;;;;;;;12.70;99.90;;;;;;5048123;28;19920;-66
2021/10/31 10:10:10;;;;;;;;;;;12.80;99.90;;;;;;5049378;28;19931;-66
2021/10/31 10:12:36;;;;;;;;;;;12.80;99.90;;;;;;5030015;28;19920;-66
2021/10/31 10:15:02;;;;;;;;;;;12.90;99.90;;;;;;5032960;28;19924;-66
2021/10/31 10:17:41;;;;;;;;;;;12.90;99.90;;;;;;5028574;28;20298;-67
2021/10/31 10:20:10;;;;;;;;;;;12.90;99.90;;;;;;5043598;28;20058;-66
2021/10/31 10:22:37;;;;;;;;;;;13.00;99.90;;;;;;5046105;28;19977;-66
2021/10/31 10:25:03;;;;;;;;;;;13.00;99.90;;;;;;5046971;28;19928;-67
2021/10/31 10:27:30;;;;;;;;;;;13.00;99.90;;;;;;5050674;28;19929;-66
2021/10/31 10:29:56;;;;;;;;;;;13.00;99.90;;;;;;5048599;28;19932;-66
2021/10/31 10:32:23;;;;;;;;;;;13.00;99.90;;;;;;5045074;28;19931;-66
2021/10/31 10:34:53;;;;;;;;;;;13.10;99.90;;;;;;5034821;28;19950;-67
2021/10/31 10:37:24;;;;;;;;;;;13.20;99.90;;;;;;5050820;28;19956;-66
2021/10/31 10:39:54;;;;;;;;;;;13.30;99.90;;;;;;5048608;28;19923;-66
2021/10/31 10:42:27;;;;;;;;;;;13.40;99.90;;;;;;5030384;28;19927;-66
2021/10/31 10:44:54;;;;;;;;;;;13.40;99.90;;;;;;5054127;28;19939;-67
2021/10/31 10:47:21;;;;;;;;;;;13.50;99.90;;;;;;5037449;28;19944;-66
2021/10/31 10:49:47;;;;;;;;;;;13.60;99.90;;;;;;5037986;28;19916;-66
2021/10/31 10:52:20;;;;;;;;;;;13.60;99.90;;;;;;5049396;28;19920;-67
2021/10/31 10:54:50;;;;;;;;;;;13.60;99.90;;;;;;5052776;28;19923;-66
2021/10/31 10:57:16;;;;;;;;;;;13.60;99.90;;;;;;5048235;28;19960;-67
2021/10/31 10:59:42;;;;;;;;;;;13.60;99.90;;;;;;5054110;28;19971;-66
2021/10/31 11:02:12;;;;;;;;;;;13.60;99.90;;;;;;5054396;28;19932;-67
2021/10/31 11:04:41;;;;;;;;;;;13.60;99.90;;;;;;5035420;28;20054;-66
2021/10/31 11:07:07;;;;;;;;;;;13.60;99.90;;;;;;5053706;28;19999;-67
2021/10/31 11:09:43;;;;;;;;;;;13.70;99.90;;;;;;5034624;28;20428;-67
2021/10/31 11:12:21;;;;;;;;;;;13.70;99.90;;;;;;5050597;28;19916;-67
2021/10/31 11:14:48;;;;;;;;;;;13.80;99.90;;;;;;5026003;28;19923;-67
2021/10/31 11:17:13;;;;;;;;;;;13.80;99.90;;;;;;5052868;28;19920;-67
2021/10/31 11:19:40;;;;;;;;;;;13.90;99.90;;;;;;5052922;28;19951;-67
2021/10/31 11:22:07;;;;;;;;;;;14.00;99.90;;;;;;5053762;28;19925;-67
2021/10/31 11:24:33;;;;;;;;;;;14.00;99.90;;;;;;5054368;28;19924;-67
2021/10/31 11:26:58;;;;;;;;;;;14.00;99.90;;;;;;5035549;28;20007;-67
2021/10/31 11:29:29;;;;;;;;;;;14.10;99.90;;;;;;5052480;28;20003;-68
2021/10/31 11:31:54;;;;;;;;;;;14.10;99.90;;;;;;5029658;28;19955;-67
2021/10/31 11:34:20;;;;;;;;;;;14.20;99.90;;;;;;5033610;28;19959;-68
2021/10/31 11:36:46;;;;;;;;;;;14.20;99.90;;;;;;5043688;28;20031;-67
2021/10/31 11:39:12;;;;;;;;;;;14.20;99.90;;;;;;5048352;28;19921;-67
2021/10/31 11:41:38;;;;;;;;;;;14.30;99.90;;;;;;5048290;28;20370;-67
2021/10/31 11:44:04;;;;;;;;;;;14.40;99.90;;;;;;5024226;28;19917;-67
2021/10/31 11:46:40;;;;;;;;;;;14.40;99.90;;;;;;5048738;28;19929;-67
2021/10/31 11:49:05;;;;;;;;;;;14.50;99.90;;;;;;5051067;28;20366;-67
2021/10/31 11:51:39;;;;;;;;;;;14.50;99.90;;;;;;5051999;28;19923;-67
2021/10/31 11:54:07;;;;;;;;;;;14.50;99.90;;;;;;5034165;28;19917;-67
2021/10/31 11:56:40;;;;;;;;;;;14.50;99.90;;;;;;5017139;28;19942;-67
2021/10/31 11:59:10;;;;;;;;;;;14.50;99.90;;;;;;5050727;28;19925;-67
2021/10/31 12:01:44;;;;;;;;;;;14.40;99.90;;;;;;5049009;28;19921;-67
2021/10/31 12:04:31;;;;;;;;;;;14.40;99.90;;;;;;5050249;28;19916;-67
2021/10/31 12:07:08;;;;;;;;;;;14.40;99.90;;;;;;5040472;28;19943;-67
2021/10/31 12:09:33;;;;;;;;;;;14.40;99.90;;;;;;5049876;28;20385;-67
2021/10/31 12:12:03;;;;;;;;;;;14.40;99.90;;;;;;5048635;28;19972;-67
2021/10/31 12:14:43;;;;;;;;;;;14.40;99.90;;;;;;5012534;28;20456;-67
2021/10/31 12:17:09;;;;;;;;;;;14.40;99.90;;;;;;5031742;28;19925;-67
2021/10/31 12:19:36;;;;;;;;;;;14.30;99.90;;;;;;5046464;28;19943;-67
2021/10/31 12:22:05;;;;;;;;;;;14.30;99.90;;;;;;5050153;28;19931;-67
2021/10/31 12:24:39;;;;;;;;;;;14.30;99.90;;;;;;5050441;28;19939;-67
2021/10/31 12:27:09;;;;;;;;;;;14.20;99.90;;;;;;5027288;28;19924;-68
2021/10/31 12:29:36;;;;;;;;;;;14.20;99.90;;;;;;5033518;28;19916;-68
2021/10/31 12:32:14;;;;;;;;;;;14.20;99.90;;;;;;5032840;28;19917;-68
2021/10/31 12:34:41;;;;;;;;;;;14.20;99.90;;;;;;5027600;28;20011;-68
2021/10/31 12:37:22;;;;;;;;;;;14.20;99.90;;;;;;5029528;28;19967;-68
2021/10/31 12:39:48;;;;;;;;;;;14.10;99.90;;;;;;5031482;28;19920;-68
2021/10/31 12:42:24;;;;;;;;;;;14.10;99.90;;;;;;5049849;28;19976;-67
2021/10/31 12:44:53;;;;;;;;;;;14.10;99.90;;;;;;5031725;28;19924;-68
2021/10/31 12:47:23;;;;;;;;;;;14.10;99.90;;;;;;5030448;28;19996;-67
2021/10/31 12:49:49;;;;;;;;;;;14.00;99.90;;;;;;5049466;28;19916;-67
2021/10/31 12:52:26;;;;;;;;;;;13.90;99.90;;;;;;5015444;28;19916;-67
2021/10/31 12:55:18;;;;;;;;;;;13.90;99.90;;;;;;5048394;28;19951;-67
2021/10/31 12:57:55;;;;;;;;;;;13.80;99.90;;;;;;5024161;28;19932;-67
2021/10/31 13:00:21;;;;;;;;;;;13.80;99.90;;;;;;5038790;28;19925;-67
2021/10/31 13:02:52;;;;;;;;;;;13.80;99.90;;;;;;5013890;28;19924;-67
2021/10/31 13:05:21;;;;;;;;;;;13.70;99.90;;;;;;5027848;28;19921;-67
2021/10/31 13:07:48;;;;;;;;;;;13.70;99.90;;;;;;5034260;28;19925;-67
2021/10/31 13:10:16;;;;;;;;;;;13.70;99.90;;;;;;5042741;28;19943;-67
2021/10/31 13:12:42;;;;;;;;;;;13.70;99.90;;;;;;5014742;28;19996;-67
2021/10/31 13:15:09;;;;;;;;;;;13.70;99.90;;;;;;5014370;28;20055;-67
2021/10/31 13:17:38;;;;;;;;;;;13.70;99.90;;;;;;5032181;28;19917;-67
2021/10/31 13:20:12;;;;;;;;;;;13.70;99.90;;;;;;5032226;28;19917;-67
2021/10/31 13:22:37;;;;;;;;;;;13.70;99.90;;;;;;5014134;28;19924;-67
2021/10/31 13:25:04;;;;;;;;;;;13.70;99.90;;;;;;5015549;28;20436;-67
2021/10/31 13:27:30;;;;;;;;;;;13.70;99.90;;;;;;5051827;28;19925;-67
2021/10/31 13:29:55;;;;;;;;;;;13.70;99.90;;;;;;5051714;28;20389;-67
2021/10/31 13:32:25;;;;;;;;;;;13.60;99.90;;;;;;5033762;28;19917;-67
2021/10/31 13:34:52;;;;;;;;;;;13.60;99.90;;;;;;5050674;28;20020;-67
2021/10/31 13:37:20;;;;;;;;;;;13.60;99.90;;;;;;5029326;28;20094;-67
2021/10/31 13:39:59;;;;;;;;;;;13.60;99.90;;;;;;5032005;28;20011;-67
2021/10/31 13:42:35;;;;;;;;;;;13.70;99.90;;;;;;5035437;28;19974;-67
2021/10/31 13:45:03;;;;;;;;;;;13.70;99.90;;;;;;5033772;28;19924;-67
2021/10/31 13:47:51;;;;;;;;;;;13.80;99.90;;;;;;5033748;28;19951;-67
2021/10/31 13:50:18;;;;;;;;;;;13.90;99.90;;;;;;5020504;28;20279;-67
2021/10/31 13:52:46;;;;;;;;;;;14.00;99.90;;;;;;5033763;28;19917;-67
2021/10/31 13:55:13;;;;;;;;;;;14.10;99.90;;;;;;5033594;28;20000;-67
2021/10/31 13:57:44;;;;;;;;;;;14.10;99.90;;;;;;5051719;28;19923;-67
2021/10/31 14:00:14;;;;;;;;;;;14.10;99.90;;;;;;5033510;28;19930;-67
2021/10/31 14:02:39;;;;;;;;;;;14.10;99.90;;;;;;5051946;28;19916;-67
2021/10/31 14:05:07;;;;;;;;;;;14.10;99.90;;;;;;5033705;28;20331;-67
2021/10/31 14:07:33;;;;;;;;;;;14.10;99.90;;;;;;5033468;28;20015;-67
2021/10/31 14:09:59;;;;;;;;;;;14.10;99.90;;;;;;5033622;28;19991;-67
2021/10/31 14:12:26;;;;;;;;;;;14.10;99.90;;;;;;5033554;28;19999;-67
2021/10/31 14:15:02;;;;;;;;;;;14.10;99.90;;;;;;5017432;28;19924;-67
2021/10/31 14:17:28;;;;;;;;;;;14.00;99.90;;;;;;5055170;28;19927;-67
2021/10/31 14:19:55;;;;;;;;;;;14.10;99.90;;;;;;5055240;28;20497;-67